EmailTwitter


Surface observations / United Kingdom / EGLL (03772)

Regions: Quebec | Canada | USA | Europe | France | UK | Elsewhere
Station
Display
Info & Location for EGLL (03772) | Help decoding METAR

Weather Conditions observed on 2019/12/16 at 02:50 UTC at LONDON/HEATHROW, UK (EGLL)

Temperature: 7.0 Celsius.

Dewpoint: 6.0 Celsius.

Relative Humidity: 93%

Windchill Factor: 4.

Winds: South at 15 km/h or 8 knots.

Mean Sea level Pressure: 99.90 kilopascals.

Horizontal visibility: 6.21 statute miles or 9.94 kilometers.

Coded METAR:

EGLL 160250Z AUTO 19008KT 9999 NCD 07/06 Q0999 NOSIG=